Terminal Aerodrome Forecast
Issued by NWS Shreveport, LA

Home | Current Version | Previous Version | Text Only | Print | Product List | Glossary On
Versions: 1 2 3 4 5 6 7 8 9 10 11 12 13 14 15 16 17 18 19 20 21 22 23 24
046
FTUS44 KSHV 220520
TAFELD
TAF
KELD 220520Z 2206/2306 16004KT P6SM SCT150
     FM221500 17010KT P6SM SCT250
     FM230000 16005KT P6SM BKN250=

USA.gov is the U.S. government's official web portal to all federal, state and local government web resources and services.